Disclaimer

Please do not use the information listed here in-flight or in-navigation, as they are not provided to us by the airports but are provided by volunteers, so they might be outdated.

Search


Regions


Airport information page

No radio frequency information is available.

Airport informations:
Latitude: 65° 48' 22.00" N
Longitude: 015° 04' 58.00" E
Elevation: 1503 feet - 458 meters
Operating hours: Remarks
Operating agency: Civil government, landing fees and diplomatic clearance may be required
Timezone: UTC+1(+2DT) - Last Sunday in March to last Sunday in October
Fuel: Jet A1, without icing nhibitor.

100/130 MIL Spec, low lead, aviation gasoline (BLUE)

Runway information:
15/33 - 5254 x 98 feet< - >1601 x 30 meters

Recent METARs:
ESUT 160550Z AUTO 13005KT 9999 FEW001/// 01/01 Q1017
ESUT 160620Z AUTO 13007KT 0450 R33/1200D FG VV002 01/01 Q1017
ESUT 160650Z AUTO 13005KT 080V150 0300 R33/1000N FG VV002 01/01 Q1018

Airport on the map: